createdAt,value
2023-03-02T00:02:06.203Z,19.10
2023-03-02T00:06:11.026Z,18.13
2023-03-02T00:10:14.110Z,19.48
2023-03-02T00:14:17.108Z,19.48
2023-03-02T00:18:20.130Z,19.85
2023-03-02T00:22:24.438Z,18.85
2023-03-02T00:26:27.561Z,19.88
2023-03-02T00:30:30.585Z,19.88
2023-03-02T00:34:33.875Z,19.25
2023-03-02T00:38:38.768Z,19.00
2023-03-02T00:42:43.223Z,19.90
2023-03-02T00:46:47.129Z,21.50
2023-03-02T00:50:50.224Z,19.83
2023-03-02T00:54:54.568Z,19.77
2023-03-02T00:58:57.673Z,20.85
2023-03-02T01:03:00.944Z,19.70
2023-03-02T01:07:06.884Z,20.20
2023-03-02T01:11:16.008Z,18.90
2023-03-02T01:15:19.304Z,19.48
2023-03-02T01:19:22.289Z,19.50
2023-03-02T01:23:25.344Z,19.60
2023-03-02T01:27:29.684Z,19.30
2023-03-02T01:31:33.090Z,18.08
2023-03-02T01:35:36.188Z,17.75
2023-03-02T01:39:39.367Z,17.88
2023-03-02T01:43:43.996Z,18.85
2023-03-02T01:47:47.061Z,18.38
2023-03-02T01:51:54.845Z,17.15
2023-03-02T01:55:58.993Z,18.00
2023-03-02T02:00:08.896Z,16.85
2023-03-02T02:04:15.272Z,17.73
2023-03-02T02:08:18.811Z,17.33
2023-03-02T02:12:23.748Z,16.47
2023-03-02T02:16:30.009Z,17.52
2023-03-02T02:20:38.297Z,16.90
2023-03-02T02:24:45.201Z,17.38
2023-03-02T02:28:57.828Z,16.05
2023-03-02T02:33:03.772Z,16.60
2023-03-02T02:37:12.972Z,17.02
2023-03-02T02:41:21.730Z,16.42
2023-03-02T02:45:29.411Z,17.35
2023-03-02T02:49:36.791Z,17.65
2023-03-02T02:53:45.096Z,16.05
2023-03-02T02:57:48.547Z,15.95
2023-03-02T03:01:54.073Z,16.73
2023-03-02T03:05:57.727Z,15.70
2023-03-02T03:10:09.876Z,16.67
2023-03-02T03:14:16.468Z,16.70
2023-03-02T03:18:25.452Z,14.37
2023-03-02T03:22:28.496Z,14.87
2023-03-02T03:26:32.857Z,15.65
2023-03-02T03:30:36.158Z,14.03
2023-03-02T03:34:41.681Z,14.97
2023-03-02T03:38:58.346Z,14.38
2023-03-02T03:43:01.847Z,15.20
2023-03-02T03:47:05.157Z,15.00
2023-03-02T03:51:10.652Z,15.60
2023-03-02T03:55:14.722Z,13.93
2023-03-02T03:59:22.567Z,14.97
2023-03-02T04:03:34.876Z,15.43
2023-03-02T04:07:42.407Z,15.27
2023-03-02T04:11:47.441Z,14.00
2023-03-02T04:15:50.934Z,15.90
2023-03-02T04:19:53.999Z,14.70
2023-03-02T04:23:58.610Z,13.30
2023-03-02T04:28:01.862Z,14.70
2023-03-02T04:32:10.224Z,14.90
2023-03-02T04:36:15.415Z,14.97
2023-03-02T04:40:20.952Z,14.83
2023-03-02T04:44:24.064Z,13.70
2023-03-02T04:48:27.486Z,15.77
2023-03-02T04:52:31.241Z,15.37
2023-03-02T04:56:36.002Z,13.83
2023-03-02T05:00:39.001Z,15.50
2023-03-02T05:04:42.498Z,13.80
2023-03-02T05:08:45.965Z,14.73
2023-03-02T05:12:58.157Z,15.50
2023-03-02T05:17:01.310Z,14.80
2023-03-02T05:21:04.839Z,13.23
2023-03-02T05:25:08.814Z,15.03
2023-03-02T05:29:13.297Z,14.33
2023-03-02T05:33:16.956Z,14.75
2023-03-02T05:37:20.051Z,14.93
2023-03-02T05:41:23.027Z,15.43
2023-03-02T05:45:29.452Z,13.50
2023-03-02T05:49:32.686Z,15.27
2023-03-02T05:53:35.820Z,15.30
2023-03-02T05:57:38.791Z,15.73
2023-03-02T06:01:43.317Z,16.33
2023-03-02T06:05:50.709Z,17.37
2023-03-02T06:09:54.026Z,16.53
2023-03-02T06:13:57.424Z,17.20
2023-03-02T06:18:02.339Z,17.43
2023-03-02T06:22:05.357Z,18.07
2023-03-02T06:26:09.709Z,16.57
2023-03-02T06:30:16.216Z,16.83
2023-03-02T06:34:20.686Z,16.17
2023-03-02T06:38:24.248Z,17.90
2023-03-02T06:42:29.154Z,16.50
2023-03-02T06:46:32.340Z,16.20
2023-03-02T06:50:37.081Z,16.43
2023-03-02T06:54:40.140Z,17.73
2023-03-02T06:58:43.455Z,16.87
2023-03-02T07:02:46.761Z,17.00
2023-03-02T07:06:51.230Z,16.67
2023-03-02T07:10:54.202Z,16.47
2023-03-02T07:14:57.246Z,17.67
2023-03-02T07:19:00.218Z,15.37
2023-03-02T07:23:04.934Z,15.13
2023-03-02T07:27:07.944Z,16.13
2023-03-02T07:31:12.155Z,16.07
2023-03-02T07:35:17.076Z,16.63
2023-03-02T07:39:21.868Z,16.50
2023-03-02T07:43:26.074Z,16.15
2023-03-02T07:47:29.238Z,16.13
2023-03-02T07:51:32.765Z,16.80
2023-03-02T07:55:41.823Z,16.83
2023-03-02T07:59:45.298Z,16.92
2023-03-02T08:03:48.476Z,17.38
2023-03-02T08:07:51.427Z,16.73
2023-03-02T08:11:55.891Z,17.52
2023-03-02T08:16:01.543Z,17.88
2023-03-02T08:20:05.558Z,17.05
2023-03-02T08:24:09.232Z,18.70
2023-03-02T08:28:13.826Z,17.17
2023-03-02T08:32:16.834Z,16.58
2023-03-02T08:36:21.398Z,18.52
2023-03-02T08:40:24.354Z,18.73
2023-03-02T08:44:28.991Z,17.17
2023-03-02T08:48:31.944Z,17.38
2023-03-02T08:52:35.372Z,16.83
2023-03-02T08:56:40.314Z,18.25
2023-03-02T09:00:45.104Z,17.55
2023-03-02T09:04:48.148Z,17.42
2023-03-02T09:08:51.464Z,17.38
2023-03-02T09:12:54.427Z,17.13
2023-03-02T09:16:59.084Z,17.83
2023-03-02T09:21:02.375Z,18.17
2023-03-02T09:25:06.735Z,18.10
2023-03-02T09:29:10.136Z,16.95
2023-03-02T09:33:14.624Z,18.17
2023-03-02T09:37:17.694Z,18.40
2023-03-02T09:42:03.400Z,17.38
2023-03-02T09:46:17.213Z,17.45
2023-03-02T09:50:30.423Z,16.90
2023-03-02T09:54:33.831Z,17.58
2023-03-02T09:58:40.619Z,17.98
2023-03-02T10:02:49.157Z,16.67
2023-03-02T10:06:59.191Z,17.63
2023-03-02T10:11:09.520Z,17.00
2023-03-02T10:15:18.112Z,18.17
2023-03-02T10:19:26.449Z,17.13
2023-03-02T10:23:45.227Z,16.08
2023-03-02T10:27:51.880Z,15.65
2023-03-02T10:32:00.819Z,14.25
2023-03-02T10:36:07.274Z,14.52
2023-03-02T10:40:29.228Z,15.82
2023-03-02T10:44:37.576Z,15.10
2023-03-02T10:48:52.453Z,14.18
2023-03-02T10:53:00.275Z,14.02
2023-03-02T10:57:20.832Z,15.02
2023-03-02T11:01:23.878Z,14.85
2023-03-02T11:05:33.508Z,13.85
2023-03-02T11:09:36.464Z,13.10
2023-03-02T11:13:41.057Z,13.38
2023-03-02T11:17:46.452Z,13.13
2023-03-02T11:21:55.021Z,13.38
2023-03-02T11:26:01.789Z,13.40
2023-03-02T11:30:14.884Z,12.57
2023-03-02T11:34:40.626Z,12.65
2023-03-02T11:38:49.079Z,13.40
2023-03-02T11:42:52.434Z,12.10
2023-03-02T11:47:01.992Z,12.10
2023-03-02T11:51:07.728Z,12.98
2023-03-02T11:55:19.563Z,12.13
2023-03-02T11:59:27.514Z,12.00
2023-03-02T12:03:41.772Z,12.02
2023-03-02T12:07:46.828Z,11.55
2023-03-02T12:11:57.011Z,11.80
2023-03-02T12:16:00.627Z,10.80
2023-03-02T12:20:27.067Z,10.73
2023-03-02T12:24:32.606Z,10.80
2023-03-02T12:28:37.269Z,11.23
2023-03-02T12:32:40.259Z,9.88
2023-03-02T12:36:45.866Z,9.90
2023-03-02T12:41:01.326Z,10.38
2023-03-02T12:45:15.474Z,11.20
2023-03-02T12:49:36.370Z,11.23
2023-03-02T12:53:41.353Z,9.45
2023-03-02T12:57:49.349Z,9.00
2023-03-02T13:01:53.014Z,7.97
2023-03-02T13:06:02.725Z,7.38
2023-03-02T13:10:17.301Z,8.00
2023-03-02T13:14:23.293Z,7.25
2023-03-02T13:18:31.853Z,7.50
2023-03-02T13:22:35.106Z,8.25
2023-03-02T13:26:40.442Z,8.45
2023-03-02T13:30:47.796Z,8.68
2023-03-02T13:34:53.807Z,8.02
2023-03-02T13:39:00.334Z,8.40
2023-03-02T13:43:08.683Z,8.07
2023-03-02T13:47:23.639Z,8.70
2023-03-02T13:51:31.917Z,8.05
2023-03-02T13:55:36.026Z,7.80
2023-03-02T13:59:42.155Z,8.93
2023-03-02T14:03:45.294Z,8.75
2023-03-02T14:07:48.689Z,8.43
2023-03-02T14:11:54.351Z,7.63
2023-03-02T14:15:58.768Z,7.55
2023-03-02T14:20:01.760Z,8.18
2023-03-02T14:24:04.961Z,7.65
2023-03-02T14:28:10.181Z,7.68
2023-03-02T14:32:16.483Z,7.20
2023-03-02T14:36:24.384Z,6.68
2023-03-02T14:40:29.184Z,7.63
2023-03-02T14:44:32.464Z,7.13
2023-03-02T14:48:37.029Z,7.93
2023-03-02T14:52:44.081Z,7.47
2023-03-02T14:56:49.335Z,7.65
2023-03-02T15:00:53.532Z,7.43
2023-03-02T15:04:58.313Z,7.45
2023-03-02T15:09:02.040Z,7.38
2023-03-02T15:13:05.101Z,8.27
2023-03-02T15:17:08.299Z,8.45
2023-03-02T15:21:18.213Z,7.72
2023-03-02T15:25:23.931Z,8.32
2023-03-02T15:29:27.057Z,7.45
2023-03-02T15:33:30.020Z,6.95
2023-03-02T15:37:34.418Z,7.50
2023-03-02T15:41:37.446Z,8.18
2023-03-02T15:45:45.798Z,8.20
2023-03-02T15:49:48.791Z,9.07
2023-03-02T15:53:53.218Z,7.50
2023-03-02T15:57:58.857Z,8.07
2023-03-02T16:02:02.480Z,7.88
2023-03-02T16:06:07.320Z,9.05
2023-03-02T16:10:16.536Z,8.52
2023-03-02T16:14:19.951Z,8.27
2023-03-02T16:18:23.059Z,7.88
2023-03-02T16:22:26.275Z,9.23
2023-03-02T16:26:30.753Z,8.18
2023-03-02T16:30:35.523Z,7.50
2023-03-02T16:34:38.587Z,8.18
2023-03-02T16:38:42.179Z,8.80
2023-03-02T16:42:46.725Z,8.60
2023-03-02T16:46:49.754Z,7.75
2023-03-02T16:50:57.219Z,8.07
2023-03-02T16:55:00.254Z,7.90
2023-03-02T16:59:04.729Z,7.55
2023-03-02T17:03:07.875Z,7.45
2023-03-02T17:07:11.289Z,7.82
2023-03-02T17:11:14.261Z,8.07
2023-03-02T17:15:18.914Z,9.18
2023-03-02T17:19:21.887Z,8.30
2023-03-02T17:23:25.174Z,7.93
2023-03-02T17:27:28.568Z,7.82
2023-03-02T17:31:33.036Z,8.10
2023-03-02T17:35:36.550Z,8.43
2023-03-02T17:39:40.686Z,8.57
2023-03-02T17:43:43.794Z,8.75
2023-03-02T17:47:50.153Z,8.73
2023-03-02T17:51:53.178Z,10.38
2023-03-02T17:55:56.297Z,8.98
2023-03-02T17:59:59.311Z,9.55
2023-03-02T18:04:04.872Z,9.50
2023-03-02T18:08:08.069Z,9.82
2023-03-02T18:12:11.275Z,9.05
2023-03-02T18:16:14.697Z,9.35
2023-03-02T18:20:19.288Z,9.75
2023-03-02T18:24:22.494Z,9.98
2023-03-02T18:28:25.663Z,10.10
2023-03-02T18:32:28.900Z,9.88
2023-03-02T18:36:33.392Z,10.25
2023-03-02T18:40:36.408Z,10.32
2023-03-02T18:44:39.523Z,10.65
2023-03-02T18:48:42.489Z,9.90
2023-03-02T18:52:47.018Z,9.25
2023-03-02T18:56:49.965Z,9.23
2023-03-02T19:00:54.105Z,9.25
2023-03-02T19:04:57.140Z,9.63
2023-03-02T19:09:01.794Z,9.90
2023-03-02T19:13:05.531Z,9.18
2023-03-02T19:17:08.662Z,10.85
2023-03-02T19:21:11.609Z,10.30
2023-03-02T19:25:16.077Z,11.05
2023-03-02T19:29:19.082Z,11.88
2023-03-02T19:33:24.791Z,10.93
2023-03-02T19:37:27.759Z,10.13
2023-03-02T19:41:32.501Z,11.07
2023-03-02T19:45:36.321Z,10.55
2023-03-02T19:49:39.394Z,10.18
2023-03-02T19:53:43.574Z,10.85
2023-03-02T19:57:51.370Z,12.30
2023-03-02T20:01:56.561Z,11.43
2023-03-02T20:05:59.822Z,12.65
2023-03-02T20:10:03.049Z,11.63
2023-03-02T20:14:07.863Z,13.05
2023-03-02T20:18:13.267Z,12.65
2023-03-02T20:22:17.025Z,12.07
2023-03-02T20:26:20.206Z,14.95
2023-03-02T20:30:28.656Z,14.77
2023-03-02T20:34:31.979Z,13.73
2023-03-02T20:38:39.354Z,12.70
2023-03-02T20:42:42.418Z,13.15
2023-03-02T20:46:49.992Z,13.40
2023-03-02T20:50:53.129Z,13.38
2023-03-02T20:54:56.236Z,12.55
2023-03-02T20:58:59.292Z,12.18
2023-03-02T21:03:04.207Z,12.98
2023-03-02T21:07:07.454Z,13.02
2023-03-02T21:11:15.710Z,13.90
2023-03-02T21:15:20.199Z,13.02
2023-03-02T21:19:25.706Z,12.40
2023-03-02T21:23:29.574Z,12.77
2023-03-02T21:27:32.782Z,12.77
2023-03-02T21:31:35.882Z,13.00
2023-03-02T21:35:40.738Z,12.60
2023-03-02T21:39:43.786Z,12.73
2023-03-02T21:43:47.794Z,12.73
2023-03-02T21:47:52.089Z,13.52
2023-03-02T21:51:57.183Z,13.43
2023-03-02T21:56:02.295Z,13.20
2023-03-02T22:00:06.387Z,13.57
2023-03-02T22:04:09.448Z,14.38
2023-03-02T22:08:17.808Z,14.43
2023-03-02T22:12:23.721Z,12.85
2023-03-02T22:16:28.155Z,14.02
2023-03-02T22:20:32.328Z,12.48
2023-03-02T22:24:36.904Z,13.68
2023-03-02T22:28:41.062Z,13.07
2023-03-02T22:32:44.195Z,13.88
2023-03-02T22:36:47.229Z,13.38
2023-03-02T22:40:53.178Z,12.73
2023-03-02T22:45:03.446Z,13.55
2023-03-02T22:49:16.453Z,12.52
2023-03-02T22:53:31.061Z,12.40
2023-03-02T22:57:36.905Z,12.60
2023-03-02T23:01:43.234Z,12.65
2023-03-02T23:05:49.179Z,12.25
2023-03-02T23:09:52.244Z,11.90
2023-03-02T23:13:57.236Z,12.45
2023-03-02T23:18:00.245Z,12.15
2023-03-02T23:22:04.650Z,12.50
2023-03-02T23:26:07.654Z,13.32
2023-03-02T23:30:13.080Z,12.52
2023-03-02T23:34:16.455Z,11.45
2023-03-02T23:38:19.512Z,12.75
2023-03-02T23:42:22.501Z,13.15
2023-03-02T23:46:27.053Z,12.38
2023-03-02T23:50:30.373Z,12.90
2023-03-02T23:54:33.501Z,11.73
2023-03-02T23:58:36.554Z,12.95
